Weather reports worldwide

Advertisment
Ayamonte, Spain (8381): temperature & dewpoint: 05.12.2019 10:00:00 - 11.12.2019 10:00:00 (CET)Ayamonte, Spain (8381): wind speed & gusts: 05.12.2019 10:00:00 - 11.12.2019 10:00:00 (CET)Ayamonte, Spain (8381): wind direction: 05.12.2019 10:00:00 - 11.12.2019 10:00:00 (CET)Ayamonte, Spain (8381): reduced air pressure: 05.12.2019 10:00:00 - 11.12.2019 10:00:00 (CET)Ayamonte, Spain (8381): precipitation: 05.12.2019 10:00:00 - 11.12.2019 10:00:00 (CET)
Date & Time tt [°C] td [°C] ff [km/h] ff [kn] fx [km/h] fx [kn] dd ppp [hPa] rr [mm]
11.12.2019 10:00:00 - - - - - - - - -
11.12.2019 09:00:00 11,6 9,6 6 3 16 9 NW 1026,5 0,0
11.12.2019 08:00:00 9,7 7,4 6 4 12 7 N 1025,8 0,0
11.12.2019 07:00:00 8,5 5,9 1 1 7 4 NNW 1025,0 -
11.12.2019 06:00:00 9,6 6,5 1 1 7 4 N 1024,8 0,0
11.12.2019 05:00:00 10,2 7,1 2 1 11 6 NNW 1025,1 0,0
11.12.2019 04:00:00 11,3 8,0 6 3 16 9 N 1025,0 0,0
11.12.2019 03:00:00 11,1 7,6 4 2 12 7 N 1025,0 0,0
11.12.2019 02:00:00 11,7 7,3 4 2 18 10 N 1025,1 0,0
11.12.2019 01:00:00 12,0 7,1 4 2 11 6 NNW 1025,5 -
11.12.2019 00:00:00 11,8 6,5 3 1 10 5 NNE 1025,6 0,0
10.12.2019 23:00:00 12,8 6,4 4 2 22 12 NNW 1025,9 0,0
10.12.2019 22:00:00 12,4 6,4 5 3 12 6 N 1025,7 0,0
10.12.2019 21:00:00 12,7 8,8 5 3 9 5 NW 1025,5 0,0
10.12.2019 20:00:00 13,6 10,5 1 1 10 5 W 1025,5 0,0
10.12.2019 19:00:00 14,6 10,4 5 3 11 6 W 1025,7 -
10.12.2019 18:00:00 15,7 8,7 4 2 9 5 WSW 1025,6 0,0
10.12.2019 17:00:00 17,5 8,4 6 4 14 8 WSW 1025,5 0,0
10.12.2019 16:00:00 18,4 8,7 8 5 16 9 WSW 1025,4 0,0
10.12.2019 15:00:00 18,4 6,8 9 5 13 7 SW 1025,9 0,0
10.12.2019 14:00:00 19,8 6,1 3 2 9 5 N 1026,7 0,0
10.12.2019 13:00:00 17,5 5,5 5 3 12 7 NNW 1027,9 -
10.12.2019 12:00:00 16,8 8,3 2 1 11 6 NNE 1028,3 0,0
10.12.2019 11:00:00 14,4 7,8 6 3 14 7 NNW 1028,5 0,0
10.12.2019 10:00:00 12,4 8,3 4 2 10 5 N 1028,3 0,0
10.12.2019 09:00:00 10,2 8,0 4 2 9 5 N 1027,9 0,0
10.12.2019 08:00:00 10,0 7,7 3 1 11 6 N 1027,4 0,0
10.12.2019 07:00:00 10,5 8,3 8 4 13 7 NNW 1027,4 -
10.12.2019 06:00:00 8,9 6,5 0 0 7 4 N 1027,6 0,0
10.12.2019 05:00:00 10,2 7,3 0 0 9 5 E 1027,6 0,0
10.12.2019 04:00:00 11,9 8,1 3 1 13 7 NNE 1027,6 0,0
10.12.2019 03:00:00 12,4 8,7 5 3 18 10 NNW 1027,7 0,0
10.12.2019 02:00:00 13,0 9,0 8 4 21 11 NNW 1027,7 0,0
10.12.2019 01:00:00 12,8 9,0 5 3 14 7 N 1028,2 -
10.12.2019 00:00:00 13,5 9,6 6 3 15 8 NNW 1028,5 0,0
09.12.2019 23:00:00 13,7 8,9 4 2 15 8 N 1028,5 0,0
09.12.2019 22:00:00 13,2 8,9 6 3 13 7 NNW 1028,6 0,0
09.12.2019 21:00:00 12,4 9,2 3 1 5 3 WSW 1028,6 0,0
09.12.2019 20:00:00 13,7 10,3 0 0 4 2 NW 1028,4 0,0
09.12.2019 19:00:00 15,8 11,0 3 2 11 6 WSW 1027,8 -
09.12.2019 18:00:00 17,5 10,4 7 4 13 7 WSW 1027,7 0,0
09.12.2019 17:00:00 20,0 10,2 3 2 11 6 SW 1027,5 0,0
09.12.2019 16:00:00 20,8 10,0 2 1 14 8 NW 1027,5 0,0
09.12.2019 15:00:00 20,2 10,3 1 1 16 9 N 1028,1 0,0
09.12.2019 14:00:00 18,6 11,2 4 2 13 7 NW 1028,7 0,0
09.12.2019 13:00:00 18,1 11,9 6 3 14 7 NNW 1029,5 -
09.12.2019 12:00:00 17,9 13,4 5 3 15 8 NNW 1030,1 0,0
09.12.2019 11:00:00 17,1 14,5 1 1 10 5 NW 1029,7 0,0
09.12.2019 10:00:00 16,5 14,7 5 3 11 6 NNW 1029,4 0,0
09.12.2019 09:00:00 16,3 14,5 1 1 6 3 NW 1028,9 0,0
09.12.2019 08:00:00 15,8 13,9 0 0 0 0 N 1028,3 0,0
09.12.2019 07:00:00 15,7 13,9 0 0 0 0 N 1027,7 -
09.12.2019 06:00:00 16,0 14,1 0 0 6 3 N 1027,2 0,0
09.12.2019 05:00:00 16,0 14,1 4 2 8 4 WNW 1027,2 0,0
09.12.2019 04:00:00 16,0 13,7 0 0 6 3 NNE 1027,5 0,0
09.12.2019 03:00:00 15,2 12,7 0 0 7 4 N 1027,2 0,0
09.12.2019 02:00:00 15,1 12,6 0 0 5 3 N 1027,2 0,0
09.12.2019 01:00:00 14,8 12,1 0 0 0 0 N 1027,6 -
09.12.2019 00:00:00 14,2 11,9 0 0 3 2 N 1027,7 0,0
08.12.2019 23:00:00 13,4 10,5 0 0 4 2 N 1027,1 0,0
08.12.2019 22:00:00 14,2 11,0 3 1 5 3 WNW 1027,3 0,0
08.12.2019 21:00:00 15,3 11,4 1 0 5 3 WNW 1027,0 0,0
08.12.2019 20:00:00 15,9 11,4 0 0 11 6 N 1026,7 0,0
08.12.2019 19:00:00 16,3 11,2 4 2 14 8 W 1026,4 -
08.12.2019 18:00:00 16,6 11,1 8 4 18 10 WSW 1026,0 0,0
08.12.2019 17:00:00 17,5 10,9 10 5 22 12 WSW 1025,8 0,0
08.12.2019 16:00:00 19,0 10,0 12 7 22 12 WSW 1025,5 0,0
08.12.2019 15:00:00 17,6 9,4 9 5 16 9 SSW 1025,5 0,0
08.12.2019 14:00:00 18,4 8,9 8 5 16 9 SSW 1025,8 0,0
08.12.2019 13:00:00 18,2 8,1 6 3 14 8 NNW 1026,5 -
08.12.2019 12:00:00 16,6 9,0 6 4 20 11 NNW 1027,1 0,0
08.12.2019 11:00:00 14,6 9,2 5 3 16 9 N 1026,8 0,0
08.12.2019 10:00:00 12,2 8,8 5 3 19 11 N 1026,6 0,0
08.12.2019 09:00:00 10,6 8,5 3 2 14 8 NNW 1026,2 0,0
08.12.2019 08:00:00 10,1 8,4 5 3 11 6 NNW 1025,4 0,0
08.12.2019 07:00:00 9,6 7,7 1 0 10 5 NW 1025,1 -
08.12.2019 06:00:00 10,4 7,8 3 2 11 6 NW 1025,0 0,0
08.12.2019 05:00:00 10,3 7,7 6 4 12 6 NNW 1024,8 0,0
08.12.2019 04:00:00 11,4 8,3 6 3 10 6 NNW 1024,7 0,0
08.12.2019 03:00:00 10,8 7,8 4 2 11 6 N 1024,8 0,0
08.12.2019 02:00:00 11,4 8,3 3 1 11 6 N 1024,8 0,0
08.12.2019 01:00:00 11,1 8,3 4 2 8 4 NNW 1025,1 -
08.12.2019 00:00:00 12,2 8,8 3 2 10 6 NNW 1025,2 0,0
07.12.2019 23:00:00 11,9 8,8 4 2 9 5 NNW 1024,9 0,0
07.12.2019 22:00:00 11,7 8,8 4 2 9 5 NW 1024,6 0,0
07.12.2019 21:00:00 12,4 8,9 0 0 5 3 WNW 1024,1 0,0
07.12.2019 20:00:00 13,6 9,8 4 2 8 4 NW 1023,8 0,0
07.12.2019 19:00:00 14,1 9,3 4 2 6 3 SW 1023,2 -
07.12.2019 18:00:00 16,2 8,7 0 0 15 8 N 1022,7 0,0
07.12.2019 17:00:00 18,2 8,5 7 4 13 7 SW 1022,2 0,0
07.12.2019 16:00:00 20,5 8,5 4 2 10 6 S 1021,7 0,0
07.12.2019 15:00:00 19,2 7,6 7 4 13 7 S 1021,8 0,0
07.12.2019 14:00:00 20,3 8,3 2 1 10 5 NW 1022,3 0,0
07.12.2019 13:00:00 19,1 8,4 3 1 9 5 ENE 1023,2 -
07.12.2019 12:00:00 15,9 8,4 6 3 11 6 NNW 1023,6 0,0
07.12.2019 11:00:00 14,0 8,0 3 2 13 7 NNW 1023,5 0,0
07.12.2019 10:00:00 11,6 7,7 5 3 14 8 NNW 1023,0 0,0
07.12.2019 09:00:00 10,2 7,3 5 3 15 8 N 1022,5 0,0
07.12.2019 08:00:00 10,5 7,4 5 3 12 6 N 1022,0 0,0
07.12.2019 07:00:00 10,9 7,7 5 3 15 8 N 1021,3 -
07.12.2019 06:00:00 11,1 8,0 6 3 15 8 N 1020,8 0,0
07.12.2019 05:00:00 10,8 8,0 4 2 12 7 N 1020,8 0,0
07.12.2019 04:00:00 10,1 7,3 3 2 6 4 N 1020,8 0,0
07.12.2019 03:00:00 10,9 7,0 0 0 14 7 N 1020,6 0,0
07.12.2019 02:00:00 12,9 8,1 6 3 16 9 NNW 1020,8 0,0
07.12.2019 01:00:00 13,0 8,1 6 3 13 7 NNW 1020,8 -
07.12.2019 00:00:00 12,9 7,7 3 2 11 6 N 1020,8 0,0
06.12.2019 23:00:00 13,9 8,1 5 3 14 7 NNW 1020,1 0,0
06.12.2019 22:00:00 14,8 8,3 5 3 15 8 NNW 1019,8 0,0
06.12.2019 21:00:00 15,4 8,7 7 4 14 7 NNW 1019,4 0,0
06.12.2019 20:00:00 15,1 7,8 4 2 9 5 NNW 1019,1 0,0
06.12.2019 19:00:00 14,7 6,5 0 0 4 2 NNW 1018,5 -
06.12.2019 18:00:00 17,4 6,8 0 0 7 4 WSW 1018,0 0,0
06.12.2019 17:00:00 20,1 6,4 4 2 10 5 SE 1017,8 0,0
06.12.2019 16:00:00 21,5 7,3 6 4 16 9 ESE 1017,5 0,0
06.12.2019 15:00:00 21,2 6,7 10 5 21 11 E 1017,7 0,0
06.12.2019 14:00:00 20,7 7,0 8 5 17 9 E 1018,2 0,0
06.12.2019 13:00:00 19,2 6,7 7 4 17 9 ENE 1019,0 -
06.12.2019 12:00:00 18,5 7,0 9 5 17 9 ENE 1019,3 0,0
06.12.2019 11:00:00 15,3 7,8 3 1 11 6 N 1019,2 0,0
06.12.2019 10:00:00 12,3 7,4 5 3 14 7 N 1019,0 0,0
06.12.2019 09:00:00 10,6 7,0 5 3 16 8 N 1018,6 0,0
06.12.2019 08:00:00 10,4 6,7 3 2 19 11 N 1017,9 0,0
06.12.2019 07:00:00 10,7 6,8 8 5 16 9 NNW 1017,4 -
06.12.2019 06:00:00 10,9 6,8 9 5 22 12 NNW 1016,7 0,0
06.12.2019 05:00:00 11,0 7,1 5 3 12 6 N 1016,6 0,0
06.12.2019 04:00:00 10,8 7,0 3 2 6 3 N 1016,3 0,0
06.12.2019 03:00:00 11,4 7,0 3 2 8 4 NNW 1016,1 0,0
06.12.2019 02:00:00 11,7 6,5 1 1 10 5 N 1016,0 0,0
06.12.2019 01:00:00 12,3 6,4 2 1 9 5 NE 1015,8 -
06.12.2019 00:00:00 12,6 6,4 1 0 10 5 N 1016,3 0,0
05.12.2019 23:00:00 11,8 5,6 2 1 11 6 N 1016,1 0,0
05.12.2019 22:00:00 12,8 5,9 3 2 12 6 NE 1015,8 0,0
05.12.2019 21:00:00 13,0 6,1 2 1 10 5 NE 1015,1 0,0
05.12.2019 20:00:00 14,7 6,7 3 2 8 5 ENE 1014,5 0,0
05.12.2019 19:00:00 15,7 7,7 1 1 6 4 ENE 1014,0 -
05.12.2019 18:00:00 17,0 7,6 2 1 13 7 E 1013,5 0,0
05.12.2019 17:00:00 17,6 7,6 4 2 16 9 ESE 1012,9 0,0
05.12.2019 16:00:00 18,2 7,3 10 5 17 9 ESE 1012,7 0,0
05.12.2019 15:00:00 18,5 6,7 10 5 22 12 E 1012,4 0,0
05.12.2019 14:00:00 19,0 7,1 8 4 22 12 E 1013,1 0,0
05.12.2019 13:00:00 17,9 7,6 8 4 19 10 E 1013,6 -
05.12.2019 12:00:00 16,7 7,6 9 5 15 8 ENE 1014,3 0,0
05.12.2019 11:00:00 14,0 8,0 5 3 14 8 N 1014,2 0,0
05.12.2019 10:00:00 11,5 7,8 6 3 16 8 NNW 1013,7 0,0

tt = temperature
td = dewpoint
ff = wind speed
fx = gusts
dd = wind direction
ppp = reduced air pressure
rr = precipitation

Next stations